Time;durP1;ratioP1;P1;durP2;ratioP2;P2;SDS_P1;SDS_P2;PMS_P1;PMS_P2;Temp;Humidity;BMP_temperature;BMP_pressure;BME280_temperature;BME280_humidity;BME280_pressure;Samples;Min_cycle;Max_cycle;Signal;HPM_P1;HPM_P2
2021/06/19 00:01:40;;;;;;;2.40;2.30;;;26.90;80.00;;;;;;4994652;28;20549;-95
2021/06/19 00:04:08;;;;;;;2.80;2.60;;;26.80;79.90;;;;;;4995320;28;20852;-95
2021/06/19 00:06:35;;;;;;;2.63;2.43;;;26.80;79.90;;;;;;4995640;28;20793;-95
2021/06/19 00:09:04;;;;;;;2.60;2.40;;;26.80;80.60;;;;;;4995920;28;20920;-95
2021/06/19 00:11:31;;;;;;;2.40;2.20;;;26.80;79.80;;;;;;4994974;28;20475;-95
2021/06/19 00:13:58;;;;;;;2.83;2.57;;;26.90;80.00;;;;;;4995336;28;20923;-96
2021/06/19 00:16:25;;;;;;;2.93;2.73;;;26.80;79.80;;;;;;4995025;28;20452;-96
2021/06/19 00:18:51;;;;;;;2.57;2.37;;;26.80;79.90;;;;;;4995015;28;20919;-95
2021/06/19 00:21:18;;;;;;;2.87;2.77;;;26.80;79.90;;;;;;4994816;28;20792;-95
2021/06/19 00:23:45;;;;;;;2.67;2.47;;;26.80;79.90;;;;;;4995967;28;20444;-94
2021/06/19 00:26:13;;;;;;;2.77;2.57;;;26.80;79.90;;;;;;4994861;28;20508;-93
2021/06/19 00:28:40;;;;;;;2.37;2.20;;;26.80;79.90;;;;;;4994655;28;21000;-94
2021/06/19 00:31:09;;;;;;;2.60;2.40;;;26.80;79.80;;;;;;4997842;28;20455;-95
2021/06/19 00:33:36;;;;;;;3.13;2.93;;;26.80;79.90;;;;;;4998341;28;20523;-95
2021/06/19 00:36:03;;;;;;;2.70;2.50;;;26.90;80.00;;;;;;4998374;28;20455;-95
2021/06/19 00:38:29;;;;;;;2.53;2.33;;;26.80;79.90;;;;;;4998686;28;20450;-95
2021/06/19 00:40:56;;;;;;;2.43;2.30;;;26.80;79.90;;;;;;4998411;28;20474;-96
2021/06/19 00:43:24;;;;;;;2.93;2.70;;;26.80;79.90;;;;;;4997005;28;20432;-95
2021/06/19 00:45:51;;;;;;;2.80;2.60;;;26.80;79.90;;;;;;4998118;28;20935;-95
2021/06/19 00:48:18;;;;;;;2.67;2.47;;;26.90;79.90;;;;;;4998527;28;20927;-95
2021/06/19 00:50:46;;;;;;;2.47;2.27;;;26.90;80.00;;;;;;4998752;28;20499;-96
2021/06/19 00:53:12;;;;;;;2.53;2.43;;;26.80;79.90;;;;;;4998257;28;20480;-94
2021/06/19 00:55:39;;;;;;;2.50;2.40;;;26.80;79.90;;;;;;4998359;28;20475;-96
2021/06/19 00:58:06;;;;;;;2.70;2.60;;;26.80;79.80;;;;;;4998309;28;20444;-95
2021/06/19 01:00:35;;;;;;;2.30;2.20;;;26.80;79.80;;;;;;4998151;28;20534;-95
2021/06/19 01:03:01;;;;;;;2.50;2.30;;;26.80;79.80;;;;;;4998728;28;20942;-96
2021/06/19 01:05:30;;;;;;;2.50;2.40;;;26.80;79.90;;;;;;4997802;28;20909;-95
2021/06/19 01:07:58;;;;;;;2.20;2.10;;;26.80;79.80;;;;;;4997772;28;20448;-95
2021/06/19 01:10:25;;;;;;;2.43;2.33;;;26.80;79.80;;;;;;4998123;28;20452;-95
2021/06/19 01:12:53;;;;;;;2.27;2.17;;;26.90;79.90;;;;;;4997754;28;20498;-95
2021/06/19 01:15:29;;;;;;;2.20;2.10;;;26.80;79.80;;;;;;4998171;28;20459;-96
2021/06/19 01:17:57;;;;;;;2.47;2.33;;;26.90;79.80;;;;;;4997689;28;20451;-95
2021/06/19 01:20:25;;;;;;;3.13;2.93;;;26.80;79.80;;;;;;4997766;28;20471;-92
2021/06/19 01:22:56;;;;;;;2.10;2.00;;;26.80;79.80;;;;;;4997874;28;20454;-95
2021/06/19 01:25:25;;;;;;;2.33;2.13;;;26.80;79.70;;;;;;4997475;28;20455;-95
2021/06/19 01:27:54;;;;;;;2.60;2.50;;;26.90;79.80;;;;;;4997792;28;20486;-93
2021/06/19 01:30:23;;;;;;;2.47;2.33;;;26.80;79.60;;;;;;4997619;28;20454;-92
2021/06/19 01:32:50;;;;;;;2.20;2.03;;;26.80;79.70;;;;;;4997947;28;20487;-95
2021/06/19 01:35:17;;;;;;;2.03;1.93;;;26.80;79.80;;;;;;4997425;28;20559;-95
2021/06/19 01:37:46;;;;;;;2.60;2.40;;;26.80;79.70;;;;;;4997880;28;20459;-95
2021/06/19 01:40:14;;;;;;;2.80;2.60;;;26.90;79.80;;;;;;4996258;28;20454;-95
2021/06/19 01:42:44;;;;;;;2.80;2.20;;;26.80;79.70;;;;;;4996533;28;20462;-96
2021/06/19 01:45:13;;;;;;;2.47;2.27;;;26.80;79.70;;;;;;4997805;28;20451;-95
2021/06/19 01:47:40;;;;;;;2.50;2.40;;;26.80;79.60;;;;;;4997080;28;20496;-94
2021/06/19 01:50:08;;;;;;;2.10;2.00;;;26.90;79.70;;;;;;4997182;28;20458;-95
2021/06/19 01:52:35;;;;;;;2.20;2.10;;;26.80;79.60;;;;;;4997438;28;20505;-95
2021/06/19 01:55:03;;;;;;;2.77;2.57;;;26.80;79.60;;;;;;4997236;28;20448;-92
2021/06/19 01:57:30;;;;;;;2.20;2.10;;;26.80;79.70;;;;;;4997584;28;20444;-95
2021/06/19 02:00:02;;;;;;;2.20;2.00;;;26.80;79.70;;;;;;4996871;28;20452;-96
2021/06/19 02:02:29;;;;;;;2.30;2.20;;;26.80;79.70;;;;;;4996933;28;20444;-95
2021/06/19 02:04:55;;;;;;;2.30;2.10;;;26.80;79.60;;;;;;4996739;28;20463;-95
2021/06/19 02:07:22;;;;;;;2.00;1.90;;;26.80;80.40;;;;;;4997012;28;20462;-94
2021/06/19 02:09:49;;;;;;;2.03;1.93;;;26.80;79.60;;;;;;4996679;28;20451;-95
2021/06/19 02:12:17;;;;;;;2.17;2.07;;;26.80;79.60;;;;;;4996739;28;20478;-95
2021/06/19 02:14:44;;;;;;;2.53;2.33;;;26.80;79.50;;;;;;4997441;28;20799;-95
2021/06/19 02:17:13;;;;;;;2.17;2.07;;;26.80;79.50;;;;;;4996632;28;20786;-95
2021/06/19 02:19:39;;;;;;;2.23;2.13;;;26.80;79.50;;;;;;4996552;28;20967;-94
2021/06/19 02:22:06;;;;;;;2.20;2.10;;;26.90;79.60;;;;;;4996703;28;20460;-95
2021/06/19 02:24:33;;;;;;;2.17;2.07;;;26.80;79.50;;;;;;4996759;28;20452;-94
2021/06/19 02:27:11;;;;;;;2.10;2.00;;;27.00;79.60;;;;;;4997026;28;20452;-96
2021/06/19 02:29:38;;;;;;;2.40;2.20;;;26.80;79.50;;;;;;4996291;28;20843;-96
2021/06/19 02:32:06;;;;;;;2.23;2.13;;;26.80;79.50;;;;;;4996476;28;20448;-95
2021/06/19 02:34:35;;;;;;;1.90;1.80;;;26.80;79.60;;;;;;4996935;28;20479;-96
2021/06/19 02:37:02;;;;;;;1.93;1.83;;;26.90;79.60;;;;;;4997315;28;20447;-95
2021/06/19 02:39:29;;;;;;;1.80;1.70;;;26.80;79.50;;;;;;4996360;28;20451;-94
2021/06/19 02:41:56;;;;;;;2.17;2.07;;;26.90;79.60;;;;;;4996034;28;20444;-96
2021/06/19 02:44:23;;;;;;;2.00;1.90;;;26.80;79.50;;;;;;4995959;28;20444;-95
2021/06/19 02:46:51;;;;;;;2.00;1.90;;;26.80;79.50;;;;;;4996281;28;20472;-92
2021/06/19 02:49:18;;;;;;;1.97;1.87;;;27.00;79.60;;;;;;4996268;28;20448;-94
2021/06/19 02:51:46;;;;;;;2.10;2.00;;;26.80;79.40;;;;;;4996052;28;20452;-95
2021/06/19 02:54:13;;;;;;;1.90;1.80;;;26.80;79.40;;;;;;4996307;28;20488;-95
2021/06/19 02:56:40;;;;;;;1.73;1.63;;;26.90;79.50;;;;;;4995724;28;20460;-95
2021/06/19 02:59:07;;;;;;;2.10;1.83;;;26.80;79.40;;;;;;4996450;28;20459;-95
2021/06/19 03:01:34;;;;;;;1.93;1.83;;;26.80;79.40;;;;;;4995887;28;20452;-95
2021/06/19 03:04:01;;;;;;;2.10;2.00;;;26.90;79.50;;;;;;4995682;28;20652;-95
2021/06/19 03:06:27;;;;;;;1.83;1.73;;;26.80;79.40;;;;;;4995838;28;20445;-94
2021/06/19 03:08:56;;;;;;;1.90;1.80;;;26.80;79.40;;;;;;4995671;28;20924;-95
2021/06/19 03:11:22;;;;;;;1.77;1.67;;;26.80;79.40;;;;;;4995675;28;20475;-91
2021/06/19 03:13:49;;;;;;;2.30;2.20;;;26.90;79.50;;;;;;4995666;28;20510;-94
2021/06/19 03:16:16;;;;;;;2.10;2.00;;;26.90;79.50;;;;;;4995558;28;20453;-95
2021/06/19 03:18:43;;;;;;;1.77;1.67;;;26.90;79.50;;;;;;4995461;28;20443;-95
2021/06/19 03:21:10;;;;;;;2.03;1.73;;;26.80;79.40;;;;;;4995894;28;20463;-95
2021/06/19 03:23:36;;;;;;;2.13;1.93;;;26.80;79.40;;;;;;4995773;28;20457;-95
2021/06/19 03:26:05;;;;;;;2.20;2.10;;;26.90;79.40;;;;;;4994655;28;20450;-93
2021/06/19 03:28:31;;;;;;;1.50;1.40;;;26.90;79.40;;;;;;4995096;28;20480;-95
2021/06/19 03:30:58;;;;;;;1.80;1.70;;;26.70;79.20;;;;;;4995271;28;20452;-95
2021/06/19 03:33:25;;;;;;;1.83;1.73;;;26.90;79.40;;;;;;4995150;28;20518;-95
2021/06/19 03:35:52;;;;;;;1.70;1.60;;;27.00;79.50;;;;;;4995091;28;20536;-92
2021/06/19 03:38:19;;;;;;;1.80;1.70;;;26.80;79.30;;;;;;4996256;28;20539;-95
2021/06/19 03:40:46;;;;;;;2.00;1.90;;;26.80;79.30;;;;;;4995537;28;20441;-95
2021/06/19 03:43:14;;;;;;;2.13;1.93;;;26.80;79.30;;;;;;4994953;28;20449;-94
2021/06/19 03:45:41;;;;;;;1.67;1.57;;;26.90;79.40;;;;;;4995907;28;20450;-96
2021/06/19 03:48:08;;;;;;;1.80;1.70;;;26.80;79.30;;;;;;4995166;28;20447;-95
2021/06/19 03:50:36;;;;;;;2.07;1.97;;;26.80;79.40;;;;;;4995268;28;20449;-95
2021/06/19 03:53:04;;;;;;;1.60;1.50;;;27.00;79.50;;;;;;4995077;28;20468;-94
2021/06/19 03:55:31;;;;;;;1.70;1.60;;;26.80;79.40;;;;;;4994998;28;20539;-94
2021/06/19 03:58:02;;;;;;;2.13;2.03;;;26.80;79.30;;;;;;4995738;28;20964;-96
2021/06/19 04:00:31;;;;;;;1.70;1.60;;;26.80;79.40;;;;;;4995095;28;20447;-95
2021/06/19 04:02:59;;;;;;;1.80;1.37;;;26.80;79.40;;;;;;4995167;28;20448;-95
2021/06/19 04:05:26;;;;;;;1.77;1.67;;;26.80;79.30;;;;;;4994316;28;20465;-95
2021/06/19 04:07:54;;;;;;;2.10;2.00;;;26.90;79.40;;;;;;4995816;28;20913;-91
2021/06/19 04:10:22;;;;;;;2.00;1.90;;;26.90;79.40;;;;;;4995917;28;20444;-94
2021/06/19 04:12:49;;;;;;;1.93;1.83;;;26.80;79.30;;;;;;4995017;28;20555;-92
2021/06/19 04:15:16;;;;;;;1.50;1.40;;;26.90;79.40;;;;;;4995062;28;20955;-95
2021/06/19 04:17:45;;;;;;;1.50;1.40;;;26.80;79.30;;;;;;4994862;28;20445;-92
2021/06/19 04:20:13;;;;;;;1.50;1.40;;;26.80;79.30;;;;;;4994978;28;20459;-96
2021/06/19 04:22:40;;;;;;;1.67;1.57;;;26.80;79.30;;;;;;4994714;28;20456;-93
2021/06/19 04:25:09;;;;;;;1.67;1.57;;;26.80;79.30;;;;;;4994837;28;20455;-95
2021/06/19 04:27:40;;;;;;;1.57;1.47;;;26.80;79.20;;;;;;4994728;28;20480;-95
2021/06/19 04:30:09;;;;;;;1.83;1.73;;;26.80;79.20;;;;;;4994973;28;20514;-95
2021/06/19 04:32:36;;;;;;;1.67;1.57;;;26.90;79.40;;;;;;4995011;28;20455;-95
2021/06/19 04:35:06;;;;;;;1.77;1.67;;;26.80;79.20;;;;;;4994624;28;20462;-96
2021/06/19 04:37:33;;;;;;;1.73;1.63;;;26.80;79.30;;;;;;4994371;28;20536;-92
2021/06/19 04:40:07;;;;;;;1.57;1.47;;;26.90;79.30;;;;;;4994561;28;20451;-94
2021/06/19 04:42:37;;;;;;;1.73;1.63;;;26.90;79.40;;;;;;4994579;28;20508;-95
2021/06/19 04:45:06;;;;;;;1.80;1.70;;;26.80;79.20;;;;;;4994978;28;20491;-93
2021/06/19 04:47:34;;;;;;;1.60;1.50;;;26.80;79.40;;;;;;4994869;28;20794;-91
2021/06/19 04:50:02;;;;;;;1.67;1.57;;;26.90;79.40;;;;;;4993495;28;20452;-94
2021/06/19 04:52:33;;;;;;;1.70;1.60;;;26.90;79.40;;;;;;4994981;28;20543;-91
2021/06/19 04:55:01;;;;;;;1.60;1.50;;;26.80;79.20;;;;;;4994900;28;20553;-95
2021/06/19 04:57:28;;;;;;;1.70;1.60;;;26.80;79.30;;;;;;4994252;28;20451;-95
2021/06/19 04:59:57;;;;;;;1.60;1.50;;;26.80;79.20;;;;;;4994677;28;20456;-94
2021/06/19 05:02:24;;;;;;;1.60;1.50;;;26.90;79.30;;;;;;4994292;28;20454;-95
2021/06/19 05:04:51;;;;;;;1.60;1.50;;;26.90;79.30;;;;;;4994279;28;20476;-95
2021/06/19 05:07:18;;;;;;;1.50;1.40;;;26.80;80.00;;;;;;4994886;28;20454;-95
2021/06/19 05:09:46;;;;;;;1.57;1.47;;;26.80;79.20;;;;;;4995425;28;20767;-96
2021/06/19 05:12:13;;;;;;;1.53;1.43;;;26.80;79.10;;;;;;4994330;28;20470;-91
2021/06/19 05:14:40;;;;;;;1.43;1.33;;;26.90;79.20;;;;;;4993929;28;20480;-95
2021/06/19 05:17:07;;;;;;;1.40;1.30;;;26.90;79.20;;;;;;4995355;28;20457;-95
2021/06/19 05:19:34;;;;;;;1.40;1.30;;;26.80;79.30;;;;;;4997799;28;20448;-95
2021/06/19 05:22:00;;;;;;;1.70;1.60;;;26.80;79.20;;;;;;4997650;28;20444;-96
2021/06/19 05:24:27;;;;;;;1.53;1.43;;;27.00;79.30;;;;;;4998062;28;20468;-95
2021/06/19 05:26:56;;;;;;;1.50;1.40;;;26.80;79.20;;;;;;4998013;28;20448;-94
2021/06/19 05:29:23;;;;;;;2.00;1.60;;;27.00;79.40;;;;;;5002941;28;20474;-95
2021/06/19 05:31:50;;;;;;;1.40;1.30;;;27.00;79.30;;;;;;4997685;28;20452;-95
2021/06/19 05:34:17;;;;;;;1.40;1.30;;;26.80;79.10;;;;;;4997253;28;20564;-95
2021/06/19 05:36:43;;;;;;;1.50;1.40;;;26.80;79.10;;;;;;4998109;28;20450;-92
2021/06/19 05:39:11;;;;;;;1.40;1.30;;;27.00;79.30;;;;;;4997507;28;20440;-95
2021/06/19 05:41:38;;;;;;;1.43;1.33;;;27.00;79.40;;;;;;4997133;28;20443;-96
2021/06/19 05:44:08;;;;;;;1.43;1.33;;;27.00;79.30;;;;;;4997468;28;20448;-96
2021/06/19 05:46:36;;;;;;;1.50;1.40;;;26.80;80.00;;;;;;4997264;28;20940;-96
2021/06/19 05:49:03;;;;;;;1.40;1.30;;;26.80;79.10;;;;;;4997467;28;20804;-96
2021/06/19 05:51:30;;;;;;;1.50;1.40;;;26.80;79.20;;;;;;4996925;28;20932;-95
2021/06/19 05:53:56;;;;;;;1.53;1.43;;;26.80;79.10;;;;;;4996943;28;20557;-91
2021/06/19 05:56:23;;;;;;;1.70;1.60;;;26.80;79.10;;;;;;4996739;28;20527;-92
2021/06/19 05:58:50;;;;;;;1.80;1.60;;;26.80;79.10;;;;;;4997336;28;20956;-91
2021/06/19 06:01:18;;;;;;;1.30;1.20;;;27.00;79.30;;;;;;4997473;28;20536;-92
2021/06/19 06:03:45;;;;;;;1.23;1.13;;;26.80;79.10;;;;;;4997168;28;20478;-94
2021/06/19 06:06:12;;;;;;;1.40;1.30;;;26.90;79.20;;;;;;4996973;28;20532;-95
2021/06/19 06:08:39;;;;;;;1.60;1.50;;;26.90;79.20;;;;;;4997581;28;20444;-93
2021/06/19 06:11:06;;;;;;;1.43;1.33;;;26.90;79.20;;;;;;4997088;28;20452;-95
2021/06/19 06:13:33;;;;;;;1.30;1.20;;;26.90;79.20;;;;;;4996594;28;20594;-92
2021/06/19 06:16:00;;;;;;;1.40;1.30;;;26.80;79.10;;;;;;4996688;28;20455;-92
2021/06/19 06:18:28;;;;;;;1.40;1.30;;;26.90;79.20;;;;;;4997039;28;20990;-95
2021/06/19 06:20:55;;;;;;;1.70;1.60;;;27.00;79.30;;;;;;4997112;28;20452;-92
2021/06/19 06:23:23;;;;;;;1.73;1.63;;;26.90;79.20;;;;;;4996699;28;20443;-95
2021/06/19 06:25:51;;;;;;;1.60;1.50;;;26.80;79.10;;;;;;4996389;28;20444;-95
2021/06/19 06:28:17;;;;;;;1.43;1.33;;;26.80;79.10;;;;;;4996023;28;20802;-95
2021/06/19 06:30:45;;;;;;;1.40;1.30;;;26.80;79.10;;;;;;4996499;28;20487;-92
2021/06/19 06:33:12;;;;;;;1.20;1.10;;;26.80;79.10;;;;;;4996433;28;20596;-95
2021/06/19 06:35:41;;;;;;;1.30;1.20;;;26.80;79.10;;;;;;4996577;28;20446;-94
2021/06/19 06:38:08;;;;;;;1.30;1.20;;;26.90;79.30;;;;;;4996193;28;20455;-95
2021/06/19 06:40:35;;;;;;;1.47;1.37;;;26.80;79.20;;;;;;4996186;28;20440;-95
2021/06/19 06:43:01;;;;;;;1.63;1.53;;;26.90;79.30;;;;;;4996020;28;20460;-95
2021/06/19 06:45:28;;;;;;;1.30;1.10;;;26.80;79.20;;;;;;4996075;28;20432;-96
2021/06/19 06:47:56;;;;;;;1.20;1.10;;;26.80;79.10;;;;;;4996760;28;20458;-94
2021/06/19 06:50:26;;;;;;;1.33;1.23;;;26.80;79.20;;;;;;4996387;28;20852;-94
2021/06/19 06:52:54;;;;;;;1.50;1.40;;;26.90;79.30;;;;;;4996833;28;20825;-95
2021/06/19 06:55:21;;;;;;;1.33;1.23;;;26.90;79.20;;;;;;4996062;28;20472;-95
2021/06/19 06:57:48;;;;;;;1.60;1.50;;;26.80;79.20;;;;;;4996125;28;20912;-96
2021/06/19 07:00:15;;;;;;;1.40;1.30;;;26.80;79.20;;;;;;4995926;28;20505;-92
2021/06/19 07:02:43;;;;;;;1.30;1.20;;;26.80;79.20;;;;;;4996188;28;20448;-95
2021/06/19 07:05:10;;;;;;;1.20;1.10;;;26.80;79.20;;;;;;4995890;28;20478;-95
2021/06/19 07:07:38;;;;;;;1.53;1.43;;;26.80;79.20;;;;;;4995486;28;20444;-95
2021/06/19 07:10:08;;;;;;;1.40;1.30;;;26.80;79.20;;;;;;4996060;28;20454;-95
2021/06/19 07:12:36;;;;;;;1.30;1.20;;;26.90;79.30;;;;;;4995599;28;20444;-94
2021/06/19 07:15:07;;;;;;;1.30;1.20;;;26.80;79.20;;;;;;4995959;28;20511;-92
2021/06/19 07:17:34;;;;;;;2.43;1.30;;;26.80;79.20;;;;;;4996241;28;20452;-95
2021/06/19 07:20:02;;;;;;;1.23;1.13;;;26.90;79.30;;;;;;4995932;28;20452;-95
2021/06/19 07:22:29;;;;;;;1.30;1.20;;;26.80;79.20;;;;;;4995583;28;20448;-95
2021/06/19 07:24:56;;;;;;;1.23;1.13;;;26.90;79.30;;;;;;4996185;28;20447;-95
2021/06/19 07:27:24;;;;;;;1.20;1.10;;;26.80;79.30;;;;;;4995361;28;20455;-95
2021/06/19 07:29:51;;;;;;;1.27;1.17;;;26.80;79.30;;;;;;4995041;28;20478;-94
2021/06/19 07:32:18;;;;;;;1.30;1.20;;;26.90;79.30;;;;;;4996242;28;20875;-96
2021/06/19 07:34:44;;;;;;;1.50;1.40;;;26.90;79.30;;;;;;4994806;28;20498;-95
2021/06/19 07:37:11;;;;;;;1.33;1.23;;;26.90;79.30;;;;;;4995833;28;20475;-95
2021/06/19 07:39:38;;;;;;;1.30;1.20;;;26.90;79.40;;;;;;4994495;28;20531;-96
2021/06/19 07:42:06;;;;;;;1.30;1.20;;;26.80;80.10;;;;;;4995907;28;20448;-95
2021/06/19 07:44:34;;;;;;;1.50;1.40;;;26.80;79.30;;;;;;4995347;28;20445;-96
2021/06/19 07:47:02;;;;;;;1.60;1.40;;;26.90;79.40;;;;;;4995730;28;20459;-95
2021/06/19 07:49:29;;;;;;;1.33;1.23;;;26.80;79.40;;;;;;4995265;28;20502;-96
2021/06/19 07:51:57;;;;;;;1.30;1.20;;;26.80;79.40;;;;;;4995543;28;20448;-95
2021/06/19 07:54:24;;;;;;;1.30;1.20;;;26.90;79.50;;;;;;4995769;28;20486;-95
2021/06/19 07:56:51;;;;;;;1.40;1.30;;;26.80;79.40;;;;;;4995554;28;20527;-95
2021/06/19 07:59:17;;;;;;;1.33;1.23;;;26.90;79.60;;;;;;4994737;28;20829;-94
2021/06/19 08:01:46;;;;;;;1.43;1.33;;;26.80;79.50;;;;;;4995030;28;20919;-95
2021/06/19 08:04:13;;;;;;;1.33;1.23;;;26.80;79.50;;;;;;4994859;28;20564;-95
2021/06/19 08:06:40;;;;;;;1.30;1.20;;;26.80;79.50;;;;;;4995250;28;20481;-94
2021/06/19 08:09:07;;;;;;;1.30;1.20;;;26.80;79.50;;;;;;4995413;28;20462;-95
2021/06/19 08:11:33;;;;;;;1.33;1.23;;;26.90;79.60;;;;;;4994785;28;20441;-93
2021/06/19 08:14:00;;;;;;;1.17;1.00;;;26.80;79.60;;;;;;4994972;28;20458;-95
2021/06/19 08:16:28;;;;;;;1.30;1.20;;;26.80;79.60;;;;;;4994918;28;20547;-95
2021/06/19 08:18:56;;;;;;;1.20;1.10;;;26.80;79.70;;;;;;4996027;28;20463;-96
2021/06/19 08:21:23;;;;;;;1.37;1.00;;;26.80;79.70;;;;;;4995076;28;20448;-93
2021/06/19 08:23:50;;;;;;;1.50;1.03;;;26.80;79.70;;;;;;4995095;28;20452;-95
2021/06/19 08:26:29;;;;;;;1.50;1.40;;;26.80;79.70;;;;;;4994979;28;21004;-95
2021/06/19 08:28:56;;;;;;;1.10;1.00;;;26.80;79.70;;;;;;4995441;28;20453;-95
2021/06/19 08:31:22;;;;;;;1.20;1.00;;;26.80;79.80;;;;;;4994867;28;20551;-95
2021/06/19 08:33:49;;;;;;;1.20;1.10;;;26.90;79.90;;;;;;4994412;28;20476;-95
2021/06/19 08:36:17;;;;;;;1.10;1.00;;;26.80;79.80;;;;;;4994817;28;20456;-95
2021/06/19 08:38:44;;;;;;;1.23;1.10;;;26.80;79.80;;;;;;4995535;28;20798;-95
2021/06/19 08:41:11;;;;;;;1.20;1.10;;;26.80;79.80;;;;;;4994966;28;20555;-96
2021/06/19 08:43:41;;;;;;;1.10;1.00;;;26.80;79.80;;;;;;4995616;28;20455;-96
2021/06/19 08:46:10;;;;;;;1.20;1.10;;;26.80;79.80;;;;;;4994236;28;20444;-96
2021/06/19 08:48:38;;;;;;;1.20;1.10;;;26.80;79.90;;;;;;4994456;28;20528;-96
2021/06/19 08:51:06;;;;;;;1.37;1.27;;;26.80;79.90;;;;;;4995962;28;20459;-95
2021/06/19 08:53:35;;;;;;;1.20;1.10;;;26.80;79.90;;;;;;4998450;28;20444;-96
2021/06/19 08:56:02;;;;;;;1.03;0.93;;;26.90;80.00;;;;;;4997994;28;20497;-95
2021/06/19 08:58:29;;;;;;;1.23;1.13;;;26.80;79.90;;;;;;4998253;28;20453;-96
2021/06/19 09:00:55;;;;;;;1.20;1.10;;;26.90;80.00;;;;;;4998467;28;20490;-95
2021/06/19 09:03:24;;;;;;;1.10;1.00;;;26.80;79.90;;;;;;4998229;28;20495;-95
2021/06/19 09:05:52;;;;;;;1.10;1.00;;;26.80;79.90;;;;;;4998494;28;20463;-95
2021/06/19 09:08:20;;;;;;;1.20;1.10;;;26.80;79.90;;;;;;4998074;28;20452;-95
2021/06/19 09:10:48;;;;;;;1.20;1.10;;;26.90;80.00;;;;;;4998174;28;20440;-95
2021/06/19 09:13:18;;;;;;;1.30;1.20;;;26.80;79.90;;;;;;4998451;28;20448;-95
2021/06/19 09:15:47;;;;;;;2.10;1.37;;;26.80;79.90;;;;;;4998051;28;20488;-95
2021/06/19 09:18:25;;;;;;;1.17;1.07;;;26.80;79.90;;;;;;4997892;28;20458;-95
2021/06/19 09:20:54;;;;;;;1.20;1.00;;;26.90;80.00;;;;;;4997699;28;20467;-95
2021/06/19 09:23:30;;;;;;;1.27;1.17;;;26.90;80.00;;;;;;4998233;28;20452;-95
2021/06/19 09:26:10;;;;;;;1.30;1.20;;;26.90;80.00;;;;;;4998262;28;20440;-96
2021/06/19 09:28:55;;;;;;;1.20;1.10;;;26.90;80.00;;;;;;4998411;28;20543;-96
2021/06/19 09:31:34;;;;;;;1.10;1.00;;;26.90;80.00;;;;;;4996711;28;20481;-95
2021/06/19 09:34:03;;;;;;;1.30;1.20;;;26.80;80.00;;;;;;4997530;28;20467;-96
2021/06/19 09:36:37;;;;;;;1.10;1.00;;;26.80;80.00;;;;;;4997330;28;20491;-96
2021/06/19 09:39:05;;;;;;;1.10;1.00;;;26.90;80.00;;;;;;4997604;28;20455;-94
2021/06/19 09:41:38;;;;;;;1.20;1.10;;;26.80;80.00;;;;;;4997407;28;20935;-95
2021/06/19 09:44:05;;;;;;;1.43;1.03;;;27.00;80.10;;;;;;4997673;28;20454;-94
2021/06/19 09:46:32;;;;;;;1.20;1.07;;;26.80;80.90;;;;;;4997554;28;20456;-96
2021/06/19 09:49:10;;;;;;;1.20;1.10;;;26.90;80.10;;;;;;4997310;28;20450;-96
2021/06/19 09:51:37;;;;;;;1.30;1.20;;;27.00;80.20;;;;;;4997570;28;20451;-96
2021/06/19 09:54:09;;;;;;;1.30;1.20;;;27.00;80.20;;;;;;4997328;28;20882;-96
2021/06/19 09:56:47;;;;;;;1.00;0.90;;;26.90;80.10;;;;;;4997249;28;20475;-95
2021/06/19 09:59:27;;;;;;;1.20;1.10;;;26.90;80.10;;;;;;4997831;28;20451;-95
2021/06/19 10:01:56;;;;;;;1.10;1.00;;;26.90;80.10;;;;;;4997004;28;20433;-95
2021/06/19 10:04:24;;;;;;;1.17;1.07;;;26.90;80.10;;;;;;4996622;28;20476;-95
2021/06/19 10:06:52;;;;;;;1.20;1.10;;;27.00;80.20;;;;;;4996880;28;20475;-92
2021/06/19 10:09:20;;;;;;;1.20;1.10;;;26.90;80.10;;;;;;4997457;28;20456;-96
2021/06/19 10:11:50;;;;;;;1.23;1.13;;;26.90;80.10;;;;;;4997321;28;20476;-95
2021/06/19 10:14:18;;;;;;;1.20;1.10;;;26.90;80.20;;;;;;4996988;28;20443;-96
2021/06/19 10:16:48;;;;;;;1.20;1.10;;;26.90;80.20;;;;;;4996975;28;20974;-95
2021/06/19 10:19:19;;;;;;;1.20;1.10;;;26.90;80.20;;;;;;4997458;28;20491;-95
2021/06/19 10:21:50;;;;;;;1.17;1.07;;;26.90;80.20;;;;;;4997768;28;20836;-96
2021/06/19 10:24:17;;;;;;;1.30;1.20;;;26.90;80.20;;;;;;4997493;28;20449;-95
2021/06/19 10:26:45;;;;;;;1.43;1.10;;;26.90;80.20;;;;;;4996739;28;20453;-93
2021/06/19 10:29:14;;;;;;;1.23;1.13;;;26.90;80.20;;;;;;4996950;28;20464;-94
2021/06/19 10:31:44;;;;;;;1.40;1.10;;;26.90;80.20;;;;;;4996813;28;20468;-95
2021/06/19 10:34:26;;;;;;;1.00;0.90;;;26.90;80.20;;;;;;4996917;28;20452;-95
2021/06/19 10:36:55;;;;;;;1.10;1.00;;;26.90;80.10;;;;;;4996054;28;20486;-96
2021/06/19 10:39:33;;;;;;;1.30;1.20;;;26.90;80.20;;;;;;4996590;28;20535;-95
2021/06/19 10:42:00;;;;;;;1.17;1.07;;;26.90;80.20;;;;;;4996140;28;20443;-95
2021/06/19 10:44:55;;;;;;;1.30;1.07;;;26.90;80.20;;;;;;4996417;28;20448;-96
2021/06/19 10:47:23;;;;;;;1.00;0.80;;;26.90;80.10;;;;;;4996480;28;20443;-96
2021/06/19 10:49:52;;;;;;;1.20;1.10;;;27.00;80.40;;;;;;4996947;28;20544;-95
2021/06/19 10:52:28;;;;;;;1.10;1.00;;;26.90;80.30;;;;;;4996105;28;20445;-95
2021/06/19 10:55:26;;;;;;;1.20;1.10;;;26.90;80.20;;;;;;4997033;28;20487;-94
2021/06/19 10:57:55;;;;;;;1.00;0.80;;;26.90;80.20;;;;;;4996710;28;20447;-94
2021/06/19 11:00:44;;;;;;;1.00;0.90;;;26.90;80.30;;;;;;4994972;28;20436;-95
2021/06/19 11:03:11;;;;;;;1.10;1.00;;;26.90;80.30;;;;;;4996156;28;20461;-95
2021/06/19 11:05:58;;;;;;;1.10;1.00;;;27.00;80.40;;;;;;4995925;28;20508;-95
2021/06/19 11:08:24;;;;;;;1.30;1.20;;;26.90;80.20;;;;;;4996133;28;20431;-95
2021/06/19 11:10:56;;;;;;;1.00;0.90;;;27.00;80.40;;;;;;4996240;28;20448;-96
2021/06/19 11:13:46;;;;;;;1.10;1.00;;;26.90;80.20;;;;;;4996257;28;20450;-95
2021/06/19 11:16:50;;;;;;;1.00;0.90;;;26.90;80.20;;;;;;4995794;28;20483;-96
2021/06/19 11:19:46;;;;;;;1.10;0.90;;;26.90;80.20;;;;;;4996342;28;20491;-96
2021/06/19 11:22:28;;;;;;;1.13;1.03;;;26.90;80.30;;;;;;4996319;28;20527;-96
2021/06/19 11:25:39;;;;;;;1.20;1.10;;;26.90;80.30;;;;;;4996010;28;20919;-95
2021/06/19 11:28:07;;;;;;;1.20;1.00;;;26.90;80.30;;;;;;4995602;28;20449;-96
2021/06/19 11:30:56;;;;;;;1.20;1.10;;;26.90;80.50;;;;;;4995404;28;20927;-95
2021/06/19 11:33:38;;;;;;;1.00;0.90;;;26.90;80.30;;;;;;4989982;28;20487;-95
2021/06/19 11:36:42;;;;;;;1.20;1.10;;;26.90;80.30;;;;;;4995742;28;20579;-96
2021/06/19 11:39:16;;;;;;;1.10;1.00;;;26.90;80.20;;;;;;4995669;28;20459;-93
2021/06/19 11:41:47;;;;;;;1.10;1.00;;;27.00;80.40;;;;;;4995484;28;20448;-95
2021/06/19 11:44:32;;;;;;;1.03;0.93;;;27.10;80.50;;;;;;4996305;28;20448;-96
2021/06/19 11:47:01;;;;;;;1.23;1.13;;;26.90;80.30;;;;;;4995069;28;20451;-96
2021/06/19 11:49:40;;;;;;;1.00;0.90;;;26.90;80.30;;;;;;4995172;28;20446;-95
2021/06/19 11:52:10;;;;;;;1.40;1.27;;;26.90;80.30;;;;;;4994946;28;20416;-96
2021/06/19 11:54:44;;;;;;;1.13;1.03;;;26.90;80.30;;;;;;4995276;28;20436;-94
2021/06/19 11:57:27;;;;;;;1.10;0.90;;;27.00;80.40;;;;;;4994956;28;20493;-96
2021/06/19 12:00:15;;;;;;;1.10;0.90;;;27.00;80.30;;;;;;4995248;28;20443;-95
2021/06/19 12:02:42;;;;;;;1.00;0.90;;;27.00;80.30;;;;;;4995484;28;20558;-96
2021/06/19 12:05:18;;;;;;;1.00;0.87;;;27.00;80.40;;;;;;4995043;28;20460;-96
2021/06/19 12:07:46;;;;;;;1.30;1.20;;;27.00;80.40;;;;;;4995123;28;20448;-96
2021/06/19 12:10:27;;;;;;;1.20;1.10;;;27.00;80.40;;;;;;4995063;28;20475;-95
2021/06/19 12:12:58;;;;;;;1.10;1.00;;;27.00;80.30;;;;;;4995308;28;20464;-96
2021/06/19 12:15:25;;;;;;;1.00;0.87;;;27.00;80.30;;;;;;4994995;28;20468;-94
2021/06/19 12:17:52;;;;;;;1.00;0.80;;;27.00;80.40;;;;;;4995708;28;20512;-95
2021/06/19 12:20:22;;;;;;;1.20;1.10;;;27.00;80.40;;;;;;4995914;28;20959;-95
2021/06/19 12:22:49;;;;;;;1.20;0.80;;;27.00;80.40;;;;;;4995010;28;20448;-96
2021/06/19 12:25:31;;;;;;;1.10;1.00;;;27.10;81.30;;;;;;4994850;28;20441;-95
2021/06/19 12:27:58;;;;;;;1.53;1.00;;;27.00;80.20;;;;;;4999273;28;20416;-95
2021/06/19 12:30:25;;;;;;;1.00;0.90;;;27.00;80.30;;;;;;4998982;28;20486;-95
2021/06/19 12:32:52;;;;;;;1.20;1.00;;;27.00;80.30;;;;;;4998536;28;20446;-95
2021/06/19 12:35:22;;;;;;;1.10;1.00;;;27.00;80.30;;;;;;4998509;28;20969;-95
2021/06/19 12:37:54;;;;;;;1.10;1.00;;;27.00;80.30;;;;;;4998994;28;20535;-94
2021/06/19 12:40:24;;;;;;;1.10;0.97;;;27.00;80.30;;;;;;4998468;28;20475;-96
2021/06/19 12:43:02;;;;;;;1.10;0.90;;;27.00;80.30;;;;;;4998781;28;20438;-95
2021/06/19 12:45:33;;;;;;;1.17;1.07;;;27.10;80.40;;;;;;4998836;28;20427;-96
2021/06/19 12:48:00;;;;;;;1.10;1.00;;;27.10;80.40;;;;;;4998504;28;20440;-94
2021/06/19 12:50:39;;;;;;;1.10;1.00;;;27.10;80.40;;;;;;4998860;28;20451;-91
2021/06/19 12:53:08;;;;;;;1.10;0.80;;;27.10;80.30;;;;;;4998686;28;20445;-96
2021/06/19 12:55:37;;;;;;;1.10;0.90;;;27.10;80.40;;;;;;4998335;28;20472;-93
2021/06/19 12:58:14;;;;;;;1.00;0.87;;;27.00;80.30;;;;;;4998259;28;20476;-94
2021/06/19 13:00:53;;;;;;;1.10;1.00;;;27.00;80.30;;;;;;4998907;28;20825;-93